Airfield :







YOU CAN JOIN US ON...

 
LOGIN :

Register | Disclaimer

   EN    FR    IT 

 









Legend :    VFR   Marginal VFR   IFR   Intensive IFR   Very Intensive IFR
Visi :
Ceiling :
>= 8 km
>= 3000ft
5 to 8 km
1000 to 3000 ft
1500m to 5 km
500 to 1000 ft
800 to 1500m
200 to 500 ft
< 800m
< 200 ft
Symbols :   Thunderstorms  Fog  Heavy snow  Heavy precipitations  Wind > 20 kt







- Airport Elevation : 586 ft
- IATA code : YRJ


CYRJ - Roberval

CURRENT METAR :
  • 221219Z CCA 11003KT 3/8SM SN VV001 OVC001 00/00 A2962 RMK SF8 SLP041

EXPIRED METARs :
  • 221200Z 09004KT 5/8SM -SN BR OVC001 00/00 A2962 RMK SF8 SLP041
  • 221107Z 09002KT 4SM -SN OVC005 01/00 A2962 RMK SF8 SLP040
  • 221043Z 08002KT 4SM -RASN BR OVC007 01/01 A2962 RMK SF8 SLP041
  • 221000Z 09002KT 12SM -RA OVC009 01/01 A2963 RMK SF8 SLP042
  • 220939Z 07003KT 20SM -RA BKN010 OVC030 01/00 A2963 RMK SF7SC1 SLP042

TAF AMD TAF CYRJ
Valid from the 22 at 12:00 until the 23 at 00:00 UTC


221212Z 2212/2224 09005KT 3/4SM -SN BR OVC002
TEMPO 2212/2220 3SM -SNRA OVC008
BECMG 2216/2218 36008KT
FM222000 36012G22KT P6SM -RA OVC015
TEMPO 2220/2224 3SM -RASN BR OVC008 RMK NXT FCST BY 221400Z
CZUL FIR / North America



MET'MAP, your aeronautical weather chart ! - Copyright ORBIFLY December 2007 - Disclaimer

ORBIFLY MET'MAP TEAM :

Programming & Development : Alexandra Zaïnal
Concept & Development : Baudouin d'Aumeries
Co-Development & Prog : Marc-Olivier Méhu
Technical & hardware support : Manuel Goepfert

Contact : metmap@orbifly.com




SOURCES & CREDITS :

   NOAA